This is the latest recevied weather packets stored in our database for station/object K7CTM. If no packets are shown the sender has not sent any weather packets the latest 1 day(s).
| Time | Temp. | Humidity | Pressure | Rain* | Wind** | Luminosity | Snow |
|---|---|---|---|---|---|---|---|
| 1777997562 | 6.67° C | 45% | 1026.9 hPa | 0 mm | 1.34 m/s, 30° | 683 W/m² | - |
| 1777997259 | 7.22° C | 45% | 1027.2 hPa | 0 mm | 3.13 m/s, 337° | 252 W/m² | - |
| 1777996957 | 6.67° C | 46% | 1027.1 hPa | 0 mm | 2.24 m/s, 291° | 458 W/m² | - |
| 1777996653 | 6.11° C | 48% | 1027.1 hPa | 0 mm | 1.79 m/s, 281° | 412 W/m² | - |
| 1777996349 | 6.11° C | 46% | 1027.1 hPa | 0 mm | 1.34 m/s, 331° | 349 W/m² | - |
| 1777996045 | 6.11° C | 48% | 1027.3 hPa | 0 mm | 1.79 m/s, 313° | 457 W/m² | - |
| 1777995742 | 5.56° C | 48% | 1027.1 hPa | 0 mm | 1.79 m/s, 293° | 343 W/m² | - |
| 1777995438 | 5° C | 50% | 1027.3 hPa | 0 mm | 0.89 m/s, 287° | 251 W/m² | - |
| 1777995136 | 5° C | 54% | 1027.3 hPa | 0 mm | 0.89 m/s, 262° | 187 W/m² | - |
| 1777994833 | 5° C | 54% | 1027.2 hPa | 0 mm | 1.34 m/s, 293° | 313 W/m² | - |
| 1777994528 | 5° C | 58% | 1027.4 hPa | 0 mm | 1.79 m/s, 276° | 344 W/m² | - |
| 1777994223 | 5° C | 55% | 1027.2 hPa | 0 mm | 0 m/s | 432 W/m² | - |
| 1777993921 | 5° C | 56% | 1027.3 hPa | 0 mm | 0.45 m/s, 349° | 323 W/m² | - |
| 1777993616 | 3.89° C | 59% | 1027.4 hPa | 0 mm | 1.79 m/s, 263° | 275 W/m² | - |
| 1777993314 | 3.89° C | 60% | 1027.2 hPa | 0 mm | 0.89 m/s, 236° | 392 W/m² | - |
| 1777993009 | 3.33° C | 61% | 1027.3 hPa | 0 mm | 0.89 m/s, 237° | 356 W/m² | - |
| 1777992709 | 3.89° C | 61% | 1027.3 hPa | 0 mm | 0.89 m/s, 255° | 251 W/m² | - |
| 1777992405 | 3.89° C | 61% | 1027.2 hPa | 0 mm | 0.89 m/s, 262° | 237 W/m² | - |
| 1777992103 | 3.89° C | 62% | 1027.3 hPa | 0 mm | 0.89 m/s, 242° | 289 W/m² | - |
| 1777991801 | 2.78° C | 65% | 1027.5 hPa | 0 mm | 0.89 m/s, 277° | 343 W/m² | - |
| 1777991497 | 2.22° C | 66% | 1027.4 hPa | 0 mm | 0.89 m/s, 235° | 289 W/m² | - |
| 1777991194 | 2.22° C | 66% | 1027.5 hPa | 0 mm | 1.79 m/s, 237° | 261 W/m² | - |
| 1777990892 | 1.67° C | 68% | 1027.4 hPa | 0 mm | 1.79 m/s, 251° | 261 W/m² | - |
| 1777990590 | 1.11° C | 71% | 1027.3 hPa | 0 mm | 1.34 m/s, 244° | 283 W/m² | - |
| 1777990286 | 0.56° C | 71% | 1027.3 hPa | 0 mm | 2.24 m/s, 254° | 135 W/m² | - |
* Rain latest hour (hover to see other rain measurements)
** Current wind speed in m/s (hover to see current wind gust speed)